M/V Hera — V7UA5 — position and weather

sailwx.info

Track history (hours):
 
Tides and Currents Weather Stations Pressure Air Temp Water Temp Dewpoint Dewpoint Depression Visibility Wind Speed Wind Dir Waves Ship Positions

M/V Hera

Last reported at 2015-Jan-27 12:32 UTC. Time now 2015-Jan-29 10:23 UTC.
Position N 36°00' W 005°12'.

Length 175 m; draft 6.3 m.

Type: Cargo ship. MMSI: 538003917.

Date/timePositionNaut miles runAvg speedWind from/ knotsBaromVisibWave heightAir tempDewpointWater temp
2015-Jan-27 12:32N 36°00' W 005°12'1414.6
2015-Jan-27 11:33N 35°57' W 005°29'12013.0
2015-Jan-27 02:20N 36°16' W 007°56'1512.5
2015-Jan-27 01:09N 36°20' W 008°14'3412.1
2015-Jan-26 22:23N 36°29' W 008°54'1411.8
2015-Jan-26 21:10N 36°32' W 009°11'1911.9
2015-Jan-26 19:33N 36°45' W 009°29'2512.5
2015-Jan-26 17:33N 37°09' W 009°39'1312.7
2015-Jan-26 16:31N 37°22' W 009°43'1312.9
2015-Jan-26 15:32N 37°34' W 009°47'1312.8
2015-Jan-26 14:33N 37°46' W 009°50'1312.7
2015-Jan-26 13:33N 37°59' W 009°53'1312.7
2015-Jan-26 12:33N 38°11' W 009°57'1312.9
2015-Jan-26 11:33N 38°24' W 010°01'1413.0
2015-Jan-26 10:31N 38°37' W 010°05'1212.8
2015-Jan-26 09:33N 38°49' W 010°06'1412.8
2015-Jan-26 08:30N 39°03' W 010°07'1312.5
2015-Jan-26 07:28N 39°16' W 010°07'1212.7
2015-Jan-26 06:33N 39°27' W 010°06'1312.8
2015-Jan-26 05:33N 39°40' W 010°06'  
2015-Jan-23 07:10N 50°26' W 000°29'813.2
2015-Jan-23 06:32N 50°28' W 000°17'1513.8
2015-Jan-23 05:27N 50°32' E 000°06'1314.1
2015-Jan-23 04:33N 50°36' E 000°25'1313.2
2015-Jan-23 03:33N 50°42' E 000°44'1212.2
2015-Jan-23 02:33N 50°49' E 000°59'1110.9
2015-Jan-23 01:33N 50°56' E 001°13'1010.0
2015-Jan-23 00:33N 51°03' E 001°25'1211.9
2015-Jan-22 23:33N 51°10' E 001°40'1414.0
2015-Jan-22 22:33N 51°22' E 001°52'1515.0
2015-Jan-22 21:34N 51°34' E 002°06'1514.8
2015-Jan-22 20:33N 51°45' E 002°23'1613.2
2015-Jan-22 19:19N 51°59' E 002°35'2111.5
2015-Jan-22 17:31N 52°20' E 002°37'14310.1
2015-Jan-22 03:22N 54°29' E 000°52'6 6.9
2015-Jan-22 02:26N 54°34' E 000°47'5 1.5
2015-Jan-21 22:50N 54°29' E 000°47'1 9.3
2015-Jan-21 22:46N 54°29' E 000°46'2 9.3
2015-Jan-21 22:33N 54°28' E 000°43'9 8.8
2015-Jan-21 21:33N 54°26' E 000°29'9 8.5
2015-Jan-21 20:33N 54°26' E 000°14'9 9.0
2015-Jan-21 19:33N 54°28' W 000°01'1010.1
2015-Jan-21 18:33N 54°32' W 000°17'1211.9
2015-Jan-21 17:33N 54°38' W 000°35'1512.2
2015-Jan-21 16:20N 54°43' W 000°59'7 8.7
2015-Jan-21 15:34N 54°41' W 001°10'1 0.6
2015-Jan-21 13:28N 54°42' W 001°12'0 0.0
2015-Jan-21 12:19N 54°42' W 001°12'0 0.0
2015-Jan-21 11:19N 54°42' W 001°12'0 0.0
2015-Jan-21 10:31N 54°42' W 001°12'0 0.0
2015-Jan-21 09:22N 54°42' W 001°12'0 0.0
2015-Jan-21 08:22N 54°42' W 001°12'0 0.0
2015-Jan-21 07:25N 54°42' W 001°12'0 0.0
2015-Jan-21 06:25N 54°42' W 001°12'0 0.0
2015-Jan-21 05:31N 54°42' W 001°12'0 0.0
2015-Jan-21 04:31N 54°42' W 001°12'0 0.0
2015-Jan-21 03:31N 54°42' W 001°12'0 0.0
2015-Jan-21 02:28N 54°42' W 001°12'0 0.1
2015-Jan-21 01:31N 54°42' W 001°12'0 0.0
2015-Jan-21 00:28N 54°42' W 001°12'0 0.0
2015-Jan-20 23:25N 54°42' W 001°12'0 0.0
2015-Jan-20 22:19N 54°42' W 001°12'0 0.0
2015-Jan-20 21:04N 54°42' W 001°12'0 0.0
2015-Jan-20 20:31N 54°42' W 001°12'0 0.0
2015-Jan-20 18:28N 54°42' W 001°12'0 0.0
2015-Jan-20 17:07N 54°42' W 001°12'0 0.0
2015-Jan-20 16:25N 54°42' W 001°12'0 0.0
2015-Jan-20 15:25N 54°42' W 001°12'0 0.0
2015-Jan-20 14:28N 54°42' W 001°12'0 0.0
2015-Jan-20 13:31N 54°42' W 001°12'0 0.0
2015-Jan-20 12:31N 54°42' W 001°12'0 0.0
2015-Jan-20 11:28N 54°42' W 001°12'0 0.0
2015-Jan-20 10:31N 54°42' W 001°12'0 0.0
2015-Jan-20 09:31N 54°42' W 001°12'0 0.0
2015-Jan-20 08:31N 54°42' W 001°12'0 0.0
2015-Jan-20 07:31N 54°42' W 001°12'0 0.0
2015-Jan-20 05:28N 54°42' W 001°12'0 0.0
2015-Jan-20 04:31N 54°42' W 001°12'0 0.0
2015-Jan-20 03:28N 54°42' W 001°12'0 0.0
2015-Jan-20 02:25N 54°42' W 001°12'0 0.0
2015-Jan-20 01:32N 54°42' W 001°12'0 0.0
2015-Jan-19 23:22N 54°42' W 001°12'0 0.0
2015-Jan-19 22:19N 54°42' W 001°12'0 0.0
2015-Jan-19 21:31N 54°42' W 001°12'0 0.0
2015-Jan-19 15:25N 54°42' W 001°12'0 0.0
2015-Jan-19 14:22N 54°42' W 001°12'0 0.0
2015-Jan-19 13:31N 54°42' W 001°12'0 0.0
2015-Jan-19 12:19N 54°42' W 001°12'0 0.0
2015-Jan-19 11:25N 54°42' W 001°12'0 0.0
2015-Jan-19 09:25N 54°42' W 001°12'0 0.0
2015-Jan-19 07:16N 54°42' W 001°12'0 0.0
2015-Jan-19 04:13N 54°42' W 001°12'0 0.0
2015-Jan-19 03:31N 54°42' W 001°12'0 0.0
2015-Jan-19 02:16N 54°42' W 001°12'0 0.0
2015-Jan-19 01:25N 54°42' W 001°12'0 0.0
2015-Jan-19 00:22N 54°42' W 001°12'0 0.0
2015-Jan-18 13:31N 54°42' W 001°12'0 0.0
2015-Jan-18 12:28N 54°42' W 001°12'0 0.0
2015-Jan-18 11:25N 54°42' W 001°12'0 0.0
2015-Jan-18 10:25N 54°42' W 001°12'0 0.0
2015-Jan-18 09:28N 54°42' W 001°12'0 0.0
2015-Jan-18 08:28N 54°42' W 001°12'0 0.0
2015-Jan-18 07:25N 54°42' W 001°12'0 0.0
2015-Jan-18 05:31N 54°42' W 001°12'0 0.0
2015-Jan-18 04:28N 54°42' W 001°12'0 0.0
2015-Jan-18 03:28N 54°42' W 001°12'0 0.0
2015-Jan-18 02:25N 54°42' W 001°12'0 0.0
2015-Jan-18 01:25N 54°42' W 001°12'0 0.0
2015-Jan-18 00:22N 54°42' W 001°12'0 0.0
2015-Jan-17 23:22N 54°42' W 001°12'0 0.0
2015-Jan-17 22:25N 54°42' W 001°12'0 0.0
2015-Jan-17 16:10N 54°42' W 001°12'0 0.0
2015-Jan-17 15:19N 54°42' W 001°12'0 0.0
2015-Jan-17 13:31N 54°42' W 001°12'  
Track history (hours):
 
Tides and Currents Weather Stations Pressure Air Temp Water Temp Dewpoint Dewpoint Depression Visibility Wind Speed Wind Dir Waves Ship Positions

M/V Hera

Last reported at 2015-Jan-27 12:32 UTC. Time now 2015-Jan-29 10:23 UTC.
Position N 36°00' W 005°12'.

Length 175 m; draft 6.3 m.

Type: Cargo ship. MMSI: 538003917.

Date/timePositionNaut miles runAvg speedWind from/ knotsBaromVisibWave heightAir tempDewpointWater temp
2015-Jan-27 12:32N 36°00' W 005°12'1414.6
2015-Jan-27 11:33N 35°57' W 005°29'12013.0
2015-Jan-27 02:20N 36°16' W 007°56'1512.5
2015-Jan-27 01:09N 36°20' W 008°14'3412.1
2015-Jan-26 22:23N 36°29' W 008°54'1411.8
2015-Jan-26 21:10N 36°32' W 009°11'1911.9
2015-Jan-26 19:33N 36°45' W 009°29'2512.5
2015-Jan-26 17:33N 37°09' W 009°39'1312.7
2015-Jan-26 16:31N 37°22' W 009°43'1312.9
2015-Jan-26 15:32N 37°34' W 009°47'1312.8
2015-Jan-26 14:33N 37°46' W 009°50'1312.7
2015-Jan-26 13:33N 37°59' W 009°53'1312.7
2015-Jan-26 12:33N 38°11' W 009°57'1312.9
2015-Jan-26 11:33N 38°24' W 010°01'1413.0
2015-Jan-26 10:31N 38°37' W 010°05'1212.8
2015-Jan-26 09:33N 38°49' W 010°06'1412.8
2015-Jan-26 08:30N 39°03' W 010°07'1312.5
2015-Jan-26 07:28N 39°16' W 010°07'1212.7
2015-Jan-26 06:33N 39°27' W 010°06'1312.8
2015-Jan-26 05:33N 39°40' W 010°06'  
2015-Jan-23 07:10N 50°26' W 000°29'813.2
2015-Jan-23 06:32N 50°28' W 000°17'1513.8
2015-Jan-23 05:27N 50°32' E 000°06'1314.1
2015-Jan-23 04:33N 50°36' E 000°25'1313.2
2015-Jan-23 03:33N 50°42' E 000°44'1212.2
2015-Jan-23 02:33N 50°49' E 000°59'1110.9
2015-Jan-23 01:33N 50°56' E 001°13'1010.0
2015-Jan-23 00:33N 51°03' E 001°25'1211.9
2015-Jan-22 23:33N 51°10' E 001°40'1414.0
2015-Jan-22 22:33N 51°22' E 001°52'1515.0
2015-Jan-22 21:34N 51°34' E 002°06'1514.8
2015-Jan-22 20:33N 51°45' E 002°23'1613.2
2015-Jan-22 19:19N 51°59' E 002°35'2111.5
2015-Jan-22 17:31N 52°20' E 002°37'14310.1
2015-Jan-22 03:22N 54°29' E 000°52'6 6.9
2015-Jan-22 02:26N 54°34' E 000°47'5 1.5
2015-Jan-21 22:50N 54°29' E 000°47'1 9.3
2015-Jan-21 22:46N 54°29' E 000°46'2 9.3
2015-Jan-21 22:33N 54°28' E 000°43'9 8.8
2015-Jan-21 21:33N 54°26' E 000°29'9 8.5
2015-Jan-21 20:33N 54°26' E 000°14'9 9.0
2015-Jan-21 19:33N 54°28' W 000°01'1010.1
2015-Jan-21 18:33N 54°32' W 000°17'1211.9
2015-Jan-21 17:33N 54°38' W 000°35'1512.2
2015-Jan-21 16:20N 54°43' W 000°59'7 8.7
2015-Jan-21 15:34N 54°41' W 001°10'1 0.6
2015-Jan-21 13:28N 54°42' W 001°12'0 0.0
2015-Jan-21 12:19N 54°42' W 001°12'0 0.0
2015-Jan-21 11:19N 54°42' W 001°12'0 0.0
2015-Jan-21 10:31N 54°42' W 001°12'0 0.0
2015-Jan-21 09:22N 54°42' W 001°12'0 0.0
2015-Jan-21 08:22N 54°42' W 001°12'0 0.0
2015-Jan-21 07:25N 54°42' W 001°12'0 0.0
2015-Jan-21 06:25N 54°42' W 001°12'0 0.0
2015-Jan-21 05:31N 54°42' W 001°12'0 0.0
2015-Jan-21 04:31N 54°42' W 001°12'0 0.0
2015-Jan-21 03:31N 54°42' W 001°12'0 0.0
2015-Jan-21 02:28N 54°42' W 001°12'0 0.1
2015-Jan-21 01:31N 54°42' W 001°12'0 0.0
2015-Jan-21 00:28N 54°42' W 001°12'0 0.0
2015-Jan-20 23:25N 54°42' W 001°12'0 0.0
2015-Jan-20 22:19N 54°42' W 001°12'0 0.0
2015-Jan-20 21:04N 54°42' W 001°12'0 0.0
2015-Jan-20 20:31N 54°42' W 001°12'0 0.0
2015-Jan-20 18:28N 54°42' W 001°12'0 0.0
2015-Jan-20 17:07N 54°42' W 001°12'0 0.0
2015-Jan-20 16:25N 54°42' W 001°12'0 0.0
2015-Jan-20 15:25N 54°42' W 001°12'0 0.0
2015-Jan-20 14:28N 54°42' W 001°12'0 0.0
2015-Jan-20 13:31N 54°42' W 001°12'0 0.0
2015-Jan-20 12:31N 54°42' W 001°12'0 0.0
2015-Jan-20 11:28N 54°42' W 001°12'0 0.0
2015-Jan-20 10:31N 54°42' W 001°12'0 0.0
2015-Jan-20 09:31N 54°42' W 001°12'0 0.0
2015-Jan-20 08:31N 54°42' W 001°12'0 0.0
2015-Jan-20 07:31N 54°42' W 001°12'0 0.0
2015-Jan-20 05:28N 54°42' W 001°12'0 0.0
2015-Jan-20 04:31N 54°42' W 001°12'0 0.0
2015-Jan-20 03:28N 54°42' W 001°12'0 0.0
2015-Jan-20 02:25N 54°42' W 001°12'0 0.0
2015-Jan-20 01:32N 54°42' W 001°12'0 0.0
2015-Jan-19 23:22N 54°42' W 001°12'0 0.0
2015-Jan-19 22:19N 54°42' W 001°12'0 0.0
2015-Jan-19 21:31N 54°42' W 001°12'0 0.0
2015-Jan-19 15:25N 54°42' W 001°12'0 0.0
2015-Jan-19 14:22N 54°42' W 001°12'0 0.0
2015-Jan-19 13:31N 54°42' W 001°12'0 0.0
2015-Jan-19 12:19N 54°42' W 001°12'0 0.0
2015-Jan-19 11:25N 54°42' W 001°12'0 0.0
2015-Jan-19 09:25N 54°42' W 001°12'0 0.0
2015-Jan-19 07:16N 54°42' W 001°12'0 0.0
2015-Jan-19 04:13N 54°42' W 001°12'0 0.0
2015-Jan-19 03:31N 54°42' W 001°12'0 0.0
2015-Jan-19 02:16N 54°42' W 001°12'0 0.0
2015-Jan-19 01:25N 54°42' W 001°12'0 0.0
2015-Jan-19 00:22N 54°42' W 001°12'0 0.0
2015-Jan-18 13:31N 54°42' W 001°12'0 0.0
2015-Jan-18 12:28N 54°42' W 001°12'0 0.0
2015-Jan-18 11:25N 54°42' W 001°12'0 0.0
2015-Jan-18 10:25N 54°42' W 001°12'0 0.0
2015-Jan-18 09:28N 54°42' W 001°12'0 0.0
2015-Jan-18 08:28N 54°42' W 001°12'0 0.0
2015-Jan-18 07:25N 54°42' W 001°12'0 0.0
2015-Jan-18 05:31N 54°42' W 001°12'0 0.0
2015-Jan-18 04:28N 54°42' W 001°12'0 0.0
2015-Jan-18 03:28N 54°42' W 001°12'0 0.0
2015-Jan-18 02:25N 54°42' W 001°12'0 0.0
2015-Jan-18 01:25N 54°42' W 001°12'0 0.0
2015-Jan-18 00:22N 54°42' W 001°12'0 0.0
2015-Jan-17 23:22N 54°42' W 001°12'0 0.0
2015-Jan-17 22:25N 54°42' W 001°12'0 0.0
2015-Jan-17 16:10N 54°42' W 001°12'0 0.0
2015-Jan-17 15:19N 54°42' W 001°12'0 0.0
2015-Jan-17 13:31N 54°42' W 001°12'  

Dump ship's entire track history